createdAt,value
2022-12-14T00:00:00.480Z,-5.1
2022-12-14T00:05:00.462Z,-5.2
2022-12-14T00:10:00.459Z,-5.2
2022-12-14T00:15:00.460Z,-5.3
2022-12-14T00:20:00.466Z,-5.2
2022-12-14T00:25:00.463Z,-5.0
2022-12-14T00:30:00.476Z,-5.0
2022-12-14T00:35:00.461Z,-5.2
2022-12-14T00:40:00.464Z,-4.9
2022-12-14T00:45:00.458Z,-4.9
2022-12-14T00:50:00.467Z,-4.9
2022-12-14T00:55:00.458Z,-4.9
2022-12-14T01:00:00.487Z,-4.8
2022-12-14T01:05:00.465Z,-5.0
2022-12-14T01:10:00.465Z,-5.1
2022-12-14T01:15:00.462Z,-5.1
2022-12-14T01:20:00.476Z,-5.1
2022-12-14T01:25:00.459Z,-5.3
2022-12-14T01:30:00.498Z,-5.3
2022-12-14T01:35:00.459Z,-5.6
2022-12-14T01:40:00.461Z,-5.6
2022-12-14T01:45:00.466Z,-5.6
2022-12-14T01:50:00.464Z,-5.5
2022-12-14T01:55:00.472Z,-5.7
2022-12-14T02:00:06.728Z,-5.9
2022-12-14T02:05:00.459Z,-5.8
2022-12-14T02:10:00.461Z,-5.8
2022-12-14T02:15:00.453Z,-5.8
2022-12-14T02:20:00.468Z,-5.7
2022-12-14T02:25:00.460Z,-5.7
2022-12-14T02:30:00.463Z,-6.0
2022-12-14T02:35:00.454Z,-6.0
2022-12-14T02:40:00.467Z,-6.2
2022-12-14T02:45:00.453Z,-6.3
2022-12-14T02:50:00.463Z,-6.3
2022-12-14T02:55:00.461Z,-6.4
2022-12-14T03:00:00.468Z,-6.4
2022-12-14T03:05:00.463Z,-6.5
2022-12-14T03:10:00.484Z,-6.5
2022-12-14T03:15:00.456Z,-6.4
2022-12-14T03:20:00.460Z,-6.4
2022-12-14T03:25:00.459Z,-6.4
2022-12-14T03:30:00.467Z,-6.4
2022-12-14T03:35:00.474Z,-6.4
2022-12-14T03:40:00.459Z,-6.4
2022-12-14T03:45:00.486Z,-6.4
2022-12-14T03:50:00.463Z,-6.5
2022-12-14T03:55:00.460Z,-6.5
2022-12-14T04:00:00.508Z,-6.6
2022-12-14T04:05:00.461Z,-6.6
2022-12-14T04:10:00.467Z,-6.7
2022-12-14T04:15:00.471Z,-6.7
2022-12-14T04:20:00.457Z,-6.9
2022-12-14T04:25:00.463Z,-6.9
2022-12-14T04:30:00.501Z,-7.0
2022-12-14T04:35:00.452Z,-7.0
2022-12-14T04:40:00.459Z,-7.0
2022-12-14T04:45:00.463Z,-7.1
2022-12-14T04:50:00.473Z,-7.2
2022-12-14T04:55:00.461Z,-7.3
2022-12-14T05:00:00.468Z,-7.4
2022-12-14T05:05:00.469Z,-7.4
2022-12-14T05:10:00.464Z,-7.4
2022-12-14T05:15:00.458Z,-7.3
2022-12-14T05:20:00.464Z,-7.4
2022-12-14T05:25:00.469Z,-7.3
2022-12-14T05:30:00.469Z,-7.4
2022-12-14T05:35:00.464Z,-7.5
2022-12-14T05:40:00.466Z,-7.5
2022-12-14T05:45:00.461Z,-7.5
2022-12-14T05:50:00.462Z,-7.6
2022-12-14T05:55:04.218Z,-7.7
2022-12-14T06:00:00.472Z,-7.7
2022-12-14T06:05:00.460Z,-7.7
2022-12-14T06:10:00.464Z,-7.8
2022-12-14T06:15:00.458Z,-7.8
2022-12-14T06:20:00.462Z,-7.9
2022-12-14T06:25:00.465Z,-7.9
2022-12-14T06:30:00.461Z,-7.9
2022-12-14T06:35:00.459Z,-8.0
2022-12-14T06:40:00.461Z,-8.0
2022-12-14T06:45:00.489Z,-8.1
2022-12-14T06:50:00.478Z,-8.1
2022-12-14T06:55:00.463Z,-8.1
2022-12-14T07:00:00.467Z,-8.2
2022-12-14T07:05:00.465Z,-8.2
2022-12-14T07:10:00.467Z,-8.3
2022-12-14T07:15:00.542Z,-8.3
2022-12-14T07:20:00.470Z,-8.3
2022-12-14T07:30:00.461Z,-8.5
2022-12-14T07:35:00.467Z,-8.6
2022-12-14T07:40:00.465Z,-8.8
2022-12-14T07:45:00.474Z,-8.6
2022-12-14T07:50:00.463Z,-8.6
2022-12-14T07:55:00.459Z,-8.3
2022-12-14T08:00:00.462Z,-8.5
2022-12-14T08:05:00.504Z,-8.4
2022-12-14T08:10:00.465Z,-8.4
2022-12-14T08:15:00.460Z,-8.4
2022-12-14T08:20:00.477Z,-8.4
2022-12-14T08:25:00.459Z,-8.3
2022-12-14T08:30:00.463Z,-8.3
2022-12-14T08:35:00.464Z,-8.3
2022-12-14T08:40:00.503Z,-8.1
2022-12-14T08:45:00.770Z,-7.3
2022-12-14T08:50:00.491Z,-6.5
2022-12-14T08:55:00.461Z,-6.8
2022-12-14T09:00:02.141Z,-6.3
2022-12-14T09:05:00.591Z,-6.1
2022-12-14T09:10:00.482Z,-6.8
2022-12-14T09:15:00.517Z,-6.2
2022-12-14T09:20:00.501Z,-6.9
2022-12-14T09:25:00.508Z,-7.2
2022-12-14T09:30:00.545Z,-7.1
2022-12-14T09:35:00.475Z,-6.9
2022-12-14T09:40:00.507Z,-7.0
2022-12-14T09:45:00.476Z,-6.9
2022-12-14T09:50:00.501Z,-6.6
2022-12-14T09:55:00.488Z,-6.4
2022-12-14T10:00:00.514Z,-5.8
2022-12-14T10:05:00.559Z,-5.8
2022-12-14T10:10:00.502Z,-5.8
2022-12-14T10:15:00.497Z,-5.4
2022-12-14T10:20:00.495Z,-5.6
2022-12-14T10:25:00.495Z,-5.5
2022-12-14T10:30:00.511Z,-5.7
2022-12-14T10:35:00.504Z,-5.7
2022-12-14T10:40:02.541Z,-5.6
2022-12-14T10:45:39.149Z,-5.6
2022-12-14T10:50:00.519Z,-5.5
2022-12-14T10:55:00.482Z,-5.6
2022-12-14T11:00:08.902Z,-5.5
2022-12-14T11:05:00.542Z,-5.5
2022-12-14T11:10:00.513Z,-5.6
2022-12-14T11:15:00.508Z,-5.4
2022-12-14T11:20:00.544Z,-5.5
2022-12-14T11:25:00.505Z,-5.6
2022-12-14T11:30:00.501Z,-5.4
2022-12-14T11:35:00.509Z,-5.4
2022-12-14T11:40:00.499Z,-5.1
2022-12-14T11:45:00.476Z,-5.1
2022-12-14T11:50:00.463Z,-5.0
2022-12-14T11:55:00.520Z,-4.8
2022-12-14T12:00:00.509Z,-4.9
2022-12-14T12:05:00.496Z,-4.8
2022-12-14T12:10:00.776Z,-4.6
2022-12-14T12:15:00.562Z,-4.6
2022-12-14T12:20:00.527Z,-4.4
2022-12-14T12:25:24.989Z,-4.4
2022-12-14T12:30:00.539Z,-4.2
2022-12-14T12:35:10.940Z,-4.2
2022-12-14T12:40:00.481Z,-4.2
2022-12-14T12:45:00.485Z,-4.0
2022-12-14T12:50:00.484Z,-4.0
2022-12-14T12:55:00.495Z,-4.2
2022-12-14T13:00:00.533Z,-4.2
2022-12-14T13:05:10.939Z,-4.1
2022-12-14T13:10:05.307Z,-4.0
2022-12-14T13:15:00.464Z,-4.0
2022-12-14T13:20:00.935Z,-4.1
2022-12-14T13:25:00.515Z,-4.0
2022-12-14T13:30:00.545Z,-3.6
2022-12-14T13:35:00.521Z,-3.8
2022-12-14T13:40:00.542Z,-3.8
2022-12-14T13:45:00.521Z,-3.5
2022-12-14T13:50:35.249Z,-3.0
2022-12-14T13:55:00.522Z,-3.5
2022-12-14T14:00:00.536Z,-3.6
2022-12-14T14:05:01.090Z,-3.7
2022-12-14T14:10:00.512Z,-4.2
2022-12-14T14:15:00.488Z,-4.3
2022-12-14T14:20:00.530Z,-4.2
2022-12-14T14:25:00.501Z,-4.3
2022-12-14T14:30:00.469Z,-4.7
2022-12-14T14:35:00.450Z,-4.9
2022-12-14T14:40:10.179Z,-4.8
2022-12-14T14:45:00.489Z,-4.8
2022-12-14T14:50:00.472Z,-4.8
2022-12-14T14:55:28.225Z,-4.8
2022-12-14T15:00:00.491Z,-4.8
2022-12-14T15:05:24.848Z,-5.0
2022-12-14T15:10:00.477Z,-5.0
2022-12-14T15:15:00.479Z,-4.9
2022-12-14T15:20:00.560Z,-5.0
2022-12-14T15:25:00.467Z,-5.0
2022-12-14T15:30:00.587Z,-5.2
2022-12-14T15:35:00.476Z,-5.5
2022-12-14T15:40:00.489Z,-5.5
2022-12-14T15:45:00.461Z,-5.5
2022-12-14T15:50:04.276Z,-5.5
2022-12-14T15:55:00.463Z,-5.7
2022-12-14T16:00:00.490Z,-5.8
2022-12-14T16:05:00.594Z,-5.8
2022-12-14T16:10:00.463Z,-6.0
2022-12-14T16:30:00.468Z,-6.0
2022-12-14T16:35:00.472Z,-6.2
2022-12-14T16:40:00.466Z,-6.1
2022-12-14T16:45:00.470Z,-6.1
2022-12-14T16:50:00.466Z,-6.2
2022-12-14T16:55:00.493Z,-6.0
2022-12-14T17:00:00.470Z,-6.2
2022-12-14T17:05:00.465Z,-6.4
2022-12-14T17:10:00.472Z,-6.6
2022-12-14T17:15:00.480Z,-6.8
2022-12-14T17:20:00.481Z,-6.8
2022-12-14T17:25:00.494Z,-6.4
2022-12-14T17:35:00.322Z,-6.5
2022-12-14T17:40:00.321Z,-6.5
2022-12-14T17:45:00.312Z,-6.5
2022-12-14T17:50:00.324Z,-6.6
2022-12-14T17:55:00.319Z,-6.5
2022-12-14T18:00:00.331Z,-6.7
2022-12-14T18:05:00.318Z,-6.6
2022-12-14T18:10:00.322Z,-6.6
2022-12-14T18:15:00.325Z,-6.5
2022-12-14T18:20:00.316Z,-6.7
2022-12-14T18:25:00.327Z,-6.7
2022-12-14T18:30:00.318Z,-6.5
2022-12-14T18:35:00.324Z,-6.6
2022-12-14T18:40:00.351Z,-6.5
2022-12-14T18:45:00.317Z,-6.5
2022-12-14T18:50:00.320Z,-6.9
2022-12-14T18:55:00.330Z,-6.5
2022-12-14T19:00:00.329Z,-6.7
2022-12-14T19:05:00.327Z,-6.6
2022-12-14T19:10:00.320Z,-6.2
2022-12-14T19:15:00.327Z,-6.4
2022-12-14T19:20:00.331Z,-6.4
2022-12-14T19:25:00.318Z,-6.5
2022-12-14T19:30:00.310Z,-6.5
2022-12-14T19:35:00.323Z,-6.4
2022-12-14T19:40:00.325Z,-6.3
2022-12-14T19:45:00.333Z,-6.5
2022-12-14T19:50:00.316Z,-6.5
2022-12-14T19:55:00.323Z,-6.8
2022-12-14T20:00:00.325Z,-6.8
2022-12-14T20:05:00.332Z,-6.7
2022-12-14T20:10:00.317Z,-6.5
2022-12-14T20:15:00.322Z,-6.5
2022-12-14T20:20:00.326Z,-6.6
2022-12-14T20:25:00.323Z,-6.9
2022-12-14T20:30:00.320Z,-6.9
2022-12-14T20:35:00.324Z,-7.0
2022-12-14T20:40:00.339Z,-7.2
2022-12-14T20:45:05.292Z,-7.0
2022-12-14T20:50:00.331Z,-7.1
2022-12-14T20:55:00.326Z,-7.1
2022-12-14T21:00:00.342Z,-7.1
2022-12-14T21:05:00.320Z,-7.0
2022-12-14T21:10:00.322Z,-7.0
2022-12-14T21:15:00.328Z,-7.1
2022-12-14T21:20:00.322Z,-7.0
2022-12-14T21:25:05.356Z,-6.5
2022-12-14T21:30:00.389Z,-6.3
2022-12-14T21:35:00.332Z,-6.4
2022-12-14T21:40:00.313Z,-6.4
2022-12-14T21:45:00.322Z,-6.2
2022-12-14T21:50:00.319Z,-6.3
2022-12-14T21:55:00.324Z,-6.1
2022-12-14T22:00:00.322Z,-6.0
2022-12-14T22:05:00.321Z,-6.0
2022-12-14T22:10:00.329Z,-6.2
2022-12-14T22:50:00.323Z,-5.6
2022-12-14T22:55:00.324Z,-5.8
2022-12-14T23:00:00.330Z,-5.6
2022-12-14T23:05:00.313Z,-5.6
2022-12-14T23:10:00.325Z,-5.6
2022-12-14T23:15:00.312Z,-5.7
2022-12-14T23:20:04.734Z,-5.6
2022-12-14T23:25:00.319Z,-5.6
2022-12-14T23:30:00.315Z,-5.6
2022-12-14T23:35:00.326Z,-5.7
2022-12-14T23:40:00.332Z,-5.7
2022-12-14T23:45:00.318Z,-5.8
2022-12-14T23:50:00.327Z,-5.6
2022-12-14T23:55:00.329Z,-5.6
